首页
METAR-TAF:

METAR-TAF

机场 :

阿雅克肖, 法国

纬度: 41-55N, 经度: 008-48E, 海拔: 6米

当前天气观测

该预报发布于19分钟前的02:30 UTC
风速3节,风向多变
温度 9°C
湿度 93%
气压 1000 hPa
能见度10公里或以上
小雨

METAR: LFKJ 170230Z AUTO VRB03KT 9999 -RA BKN060/// OVC072/// ///CB 09/08 Q1000 TEMPO SHRA BECMG SCT050 BKN070

时间: 03:49 (02:49 UTC)

预报

该预报发布于49分钟前的02:00 UTC
预报有效从17日的 03点(UTC)到 18日的 03点(UTC)
风速6节,风向东转东北
能见度10公里或以上
散云层高于5000英尺
多云层高于7000英尺
小雨
短暂存在
从 17日的 03点(UTC)到 17日的 04点(UTC)
散云层高于2600英尺, 塔状积云.
阵雨
成为
从 17日的 09点(UTC)到 17日的 11点(UTC)
风速12节,风向西,有时为25节阵风
散云层高于1500英尺
多云层高于3000英尺
短暂存在
从 17日的 08点(UTC)到 17日的 11点(UTC)
散云层高于1500英尺
散云层高于2500英尺, 塔状积云.
阵雨
短暂存在
从 17日的 15点(UTC)到 17日的 18点(UTC)
散云层高于2500英尺, 塔状积云.
多云层高于4000英尺
阵雨

TAF: LFKJ 170200Z 1703/1803 06006KT 9999 -RA SCT050 BKN070 TEMPO 1703/1704 SHRA SCT026TCU BECMG 1709/1711 28012G25KT SCT015 BKN030 TEMPO 1708/1711 SHRA SCT015 SCT025TCU TEMPO 1715/1718 SHRA SCT025TCU BKN040

超过4000个机场的气象观测和天气预报(METAR&TAF报告)。

可查询的气象台以黄色和红色小点在地图上表示。

将鼠标移到小点上方,可查看气象台名称。

然后点击查看天气观测和预报。

如需切换地图:点击带黑十字的绿色按钮放大地图;点击带横线的绿色按钮缩小地图;或者点击绿色箭头查看邻近地区的地图。


METAR-TAF: